Daihatsumaru — JD2764 — position and weather

sailwx.info

Track history (hours):
 
Tides and Currents Weather Stations Pressure Air Temp Water Temp Dewpoint Dewpoint Depression Visibility Wind Speed Wind Dir Waves Ship Positions

Daihatsumaru

Last reported at 2014-Aug-28 17:32 UTC. Time now 2014-Aug-28 23:16 UTC.
Position N 33°57' E 132°41'.

Length 106 m; draft 4.5 m.

Type: Cargo ship. MMSI: 431000701.

Date/timePositionNaut miles runAvg speedWind from/ knotsBaromVisibWave heightAir tempDewpointWater temp
2014-Aug-28 17:32N 33°57' E 132°41'116 8.8
2014-Aug-28 04:21N 34°36' E 134°54'1113.8
2014-Aug-28 03:34N 34°35' E 135°07'1514.4
2014-Aug-28 02:32N 34°41' E 135°23'0 0.1
2014-Aug-28 01:33N 34°41' E 135°23'0 0.0
2014-Aug-28 00:33N 34°41' E 135°23'0 0.0
2014-Aug-27 23:34N 34°41' E 135°23'24 0.6
2014-Aug-26 05:33N 34°36' E 134°55'1111.2
2014-Aug-26 04:33N 34°36' E 135°08'1413.7
2014-Aug-26 03:33N 34°41' E 135°23'0 0.1
2014-Aug-26 02:33N 34°41' E 135°23'0 0.0
2014-Aug-26 01:33N 34°41' E 135°23'0 0.0
2014-Aug-26 00:33N 34°41' E 135°23'0 0.0
2014-Aug-25 23:33N 34°41' E 135°23'2 2.5
2014-Aug-25 22:33N 34°40' E 135°21'1 0.6
2014-Aug-25 21:31N 34°40' E 135°20'0 0.0
2014-Aug-25 20:19N 34°40' E 135°20'0 0.0
2014-Aug-25 19:31N 34°40' E 135°20'6 6.3
2014-Aug-25 18:33N 34°35' E 135°15'1514.8
2014-Aug-25 17:33N 34°36' E 134°57'11514.2
2014-Aug-25 09:28N 33°60' E 132°45'  
2014-Aug-23 03:34N 34°39' E 135°20'4 3.8
2014-Aug-23 02:33N 34°41' E 135°23'0 0.0
2014-Aug-23 01:33N 34°41' E 135°23'0 0.0
2014-Aug-23 00:33N 34°41' E 135°23'0 0.0
2014-Aug-22 23:33N 34°41' E 135°23'3 3.1
2014-Aug-22 22:33N 34°39' E 135°20'0 0.2
2014-Aug-22 21:32N 34°39' E 135°20'0 0.0
2014-Aug-22 20:32N 34°39' E 135°20'0 0.0
2014-Aug-22 19:32N 34°39' E 135°20'6 5.8
2014-Aug-22 18:34N 34°36' E 135°15'1515.0
2014-Aug-22 17:34N 34°36' E 134°57'11614.4
2014-Aug-22 09:31N 33°59' E 132°44'114 3.9
2014-Aug-21 04:16N 34°36' E 134°55'912.9
2014-Aug-21 03:33N 34°36' E 135°06'1414.3
2014-Aug-21 02:33N 34°41' E 135°22'1 1.1
2014-Aug-21 01:33N 34°41' E 135°23'0 0.0
2014-Aug-21 00:33N 34°41' E 135°23'0 0.0
2014-Aug-20 23:33N 34°41' E 135°23'3 3.2
2014-Aug-20 22:33N 34°39' E 135°21'0 0.3
2014-Aug-20 21:33N 34°39' E 135°20'0 0.0
2014-Aug-20 20:33N 34°39' E 135°20'1 0.9
2014-Aug-20 19:33N 34°38' E 135°19'1312.9
2014-Aug-20 18:34N 34°35' E 135°04'1312.7
2014-Aug-20 17:33N 34°33' E 134°49'11013.8
2014-Aug-20 09:34N 33°57' E 132°43'2 0.1
2014-Aug-19 14:33N 33°59' E 132°43'11311.0
2014-Aug-19 04:15N 34°36' E 134°53'1014.8
2014-Aug-19 03:33N 34°36' E 135°06'1514.5
2014-Aug-19 02:33N 34°41' E 135°22'1 0.9
2014-Aug-19 01:33N 34°41' E 135°23'0 0.0
2014-Aug-19 00:33N 34°41' E 135°23'0 0.0
2014-Aug-18 23:28N 34°41' E 135°23'0 0.0
2014-Aug-18 22:28N 34°41' E 135°23'0 0.0
2014-Aug-18 21:28N 34°41' E 135°23'0 0.0
2014-Aug-18 20:10N 34°41' E 135°23'0 0.0
2014-Aug-18 19:22N 34°41' E 135°23'0 0.0
2014-Aug-18 18:22N 34°41' E 135°23'  
Track history (hours):
 
Tides and Currents Weather Stations Pressure Air Temp Water Temp Dewpoint Dewpoint Depression Visibility Wind Speed Wind Dir Waves Ship Positions

Daihatsumaru

Last reported at 2014-Aug-28 17:32 UTC. Time now 2014-Aug-28 23:16 UTC.
Position N 33°57' E 132°41'.

Length 106 m; draft 4.5 m.

Type: Cargo ship. MMSI: 431000701.

Date/timePositionNaut miles runAvg speedWind from/ knotsBaromVisibWave heightAir tempDewpointWater temp
2014-Aug-28 17:32N 33°57' E 132°41'116 8.8
2014-Aug-28 04:21N 34°36' E 134°54'1113.8
2014-Aug-28 03:34N 34°35' E 135°07'1514.4
2014-Aug-28 02:32N 34°41' E 135°23'0 0.1
2014-Aug-28 01:33N 34°41' E 135°23'0 0.0
2014-Aug-28 00:33N 34°41' E 135°23'0 0.0
2014-Aug-27 23:34N 34°41' E 135°23'24 0.6
2014-Aug-26 05:33N 34°36' E 134°55'1111.2
2014-Aug-26 04:33N 34°36' E 135°08'1413.7
2014-Aug-26 03:33N 34°41' E 135°23'0 0.1
2014-Aug-26 02:33N 34°41' E 135°23'0 0.0
2014-Aug-26 01:33N 34°41' E 135°23'0 0.0
2014-Aug-26 00:33N 34°41' E 135°23'0 0.0
2014-Aug-25 23:33N 34°41' E 135°23'2 2.5
2014-Aug-25 22:33N 34°40' E 135°21'1 0.6
2014-Aug-25 21:31N 34°40' E 135°20'0 0.0
2014-Aug-25 20:19N 34°40' E 135°20'0 0.0
2014-Aug-25 19:31N 34°40' E 135°20'6 6.3
2014-Aug-25 18:33N 34°35' E 135°15'1514.8
2014-Aug-25 17:33N 34°36' E 134°57'11514.2
2014-Aug-25 09:28N 33°60' E 132°45'  
2014-Aug-23 03:34N 34°39' E 135°20'4 3.8
2014-Aug-23 02:33N 34°41' E 135°23'0 0.0
2014-Aug-23 01:33N 34°41' E 135°23'0 0.0
2014-Aug-23 00:33N 34°41' E 135°23'0 0.0
2014-Aug-22 23:33N 34°41' E 135°23'3 3.1
2014-Aug-22 22:33N 34°39' E 135°20'0 0.2
2014-Aug-22 21:32N 34°39' E 135°20'0 0.0
2014-Aug-22 20:32N 34°39' E 135°20'0 0.0
2014-Aug-22 19:32N 34°39' E 135°20'6 5.8
2014-Aug-22 18:34N 34°36' E 135°15'1515.0
2014-Aug-22 17:34N 34°36' E 134°57'11614.4
2014-Aug-22 09:31N 33°59' E 132°44'114 3.9
2014-Aug-21 04:16N 34°36' E 134°55'912.9
2014-Aug-21 03:33N 34°36' E 135°06'1414.3
2014-Aug-21 02:33N 34°41' E 135°22'1 1.1
2014-Aug-21 01:33N 34°41' E 135°23'0 0.0
2014-Aug-21 00:33N 34°41' E 135°23'0 0.0
2014-Aug-20 23:33N 34°41' E 135°23'3 3.2
2014-Aug-20 22:33N 34°39' E 135°21'0 0.3
2014-Aug-20 21:33N 34°39' E 135°20'0 0.0
2014-Aug-20 20:33N 34°39' E 135°20'1 0.9
2014-Aug-20 19:33N 34°38' E 135°19'1312.9
2014-Aug-20 18:34N 34°35' E 135°04'1312.7
2014-Aug-20 17:33N 34°33' E 134°49'11013.8
2014-Aug-20 09:34N 33°57' E 132°43'2 0.1
2014-Aug-19 14:33N 33°59' E 132°43'11311.0
2014-Aug-19 04:15N 34°36' E 134°53'1014.8
2014-Aug-19 03:33N 34°36' E 135°06'1514.5
2014-Aug-19 02:33N 34°41' E 135°22'1 0.9
2014-Aug-19 01:33N 34°41' E 135°23'0 0.0
2014-Aug-19 00:33N 34°41' E 135°23'0 0.0
2014-Aug-18 23:28N 34°41' E 135°23'0 0.0
2014-Aug-18 22:28N 34°41' E 135°23'0 0.0
2014-Aug-18 21:28N 34°41' E 135°23'0 0.0
2014-Aug-18 20:10N 34°41' E 135°23'0 0.0
2014-Aug-18 19:22N 34°41' E 135°23'0 0.0
2014-Aug-18 18:22N 34°41' E 135°23'  

Dump ship's entire track history